createdAt,value
2023-05-05T00:01:02.427Z,1.50
2023-05-05T00:03:30.195Z,1.25
2023-05-05T00:05:58.250Z,1.48
2023-05-05T00:08:25.582Z,1.48
2023-05-05T00:10:53.758Z,1.50
2023-05-05T00:13:22.054Z,1.23
2023-05-05T00:15:50.987Z,1.50
2023-05-05T00:18:19.349Z,1.13
2023-05-05T00:20:47.628Z,1.10
2023-05-05T00:23:16.592Z,1.30
2023-05-05T00:25:43.943Z,1.73
2023-05-05T00:28:11.686Z,1.65
2023-05-05T00:30:40.708Z,1.40
2023-05-05T00:33:08.463Z,1.50
2023-05-05T00:35:36.105Z,1.83
2023-05-05T00:38:06.444Z,1.48
2023-05-05T00:40:33.946Z,1.67
2023-05-05T00:43:01.352Z,1.70
2023-05-05T00:45:28.794Z,1.52
2023-05-05T00:47:59.095Z,1.52
2023-05-05T00:50:31.370Z,1.50
2023-05-05T00:53:02.648Z,1.38
2023-05-05T00:55:35.171Z,1.67
2023-05-05T00:58:06.070Z,0.98
2023-05-05T01:00:33.562Z,1.45
2023-05-05T01:03:01.728Z,1.33
2023-05-05T01:05:41.880Z,1.50
2023-05-05T01:08:33.244Z,1.17
2023-05-05T01:11:11.043Z,1.40
2023-05-05T01:13:47.133Z,1.67
2023-05-05T01:17:05.705Z,1.10
2023-05-05T01:20:13.994Z,1.20
2023-05-05T01:22:48.778Z,1.60
2023-05-05T01:25:31.209Z,1.33
2023-05-05T01:28:28.830Z,1.30
2023-05-05T01:31:18.714Z,1.48
2023-05-05T01:33:53.463Z,1.73
2023-05-05T01:36:44.684Z,1.52
2023-05-05T01:39:16.881Z,1.98
2023-05-05T01:41:48.389Z,1.55
2023-05-05T01:44:19.287Z,1.42
2023-05-05T01:46:49.156Z,1.45
2023-05-05T01:49:17.168Z,1.75
2023-05-05T01:51:47.142Z,1.40
2023-05-05T01:54:17.043Z,1.85
2023-05-05T01:56:46.618Z,1.75
2023-05-05T01:59:14.364Z,1.75
2023-05-05T02:01:44.965Z,1.40
2023-05-05T02:04:14.656Z,1.75
2023-05-05T02:06:45.416Z,1.63
2023-05-05T02:09:14.336Z,1.52
2023-05-05T02:11:42.359Z,1.55
2023-05-05T02:14:10.782Z,1.80
2023-05-05T02:16:41.383Z,1.60
2023-05-05T02:19:09.784Z,1.70
2023-05-05T02:21:38.022Z,1.92
2023-05-05T02:24:07.975Z,2.88
2023-05-05T02:26:40.219Z,1.23
2023-05-05T02:29:13.496Z,2.20
2023-05-05T02:31:48.251Z,1.80
2023-05-05T02:34:29.359Z,1.30
2023-05-05T02:37:03.548Z,1.67
2023-05-05T02:39:46.285Z,1.60
2023-05-05T02:42:22.210Z,1.30
2023-05-05T02:44:54.415Z,1.55
2023-05-05T02:47:23.739Z,1.40
2023-05-05T02:49:52.573Z,1.80
2023-05-05T02:52:20.333Z,1.75
2023-05-05T02:54:48.371Z,1.40
2023-05-05T02:57:26.469Z,1.52
2023-05-05T03:00:25.327Z,1.98
2023-05-05T03:03:25.228Z,1.30
2023-05-05T03:06:16.807Z,1.50
2023-05-05T03:09:08.452Z,1.75
2023-05-05T03:11:50.498Z,1.48
2023-05-05T03:14:21.401Z,1.70
2023-05-05T03:16:50.623Z,1.75
2023-05-05T03:19:20.418Z,1.75
2023-05-05T03:21:53.026Z,1.83
2023-05-05T03:24:21.846Z,1.42
2023-05-05T03:27:00.763Z,1.60
2023-05-05T03:29:33.969Z,1.77
2023-05-05T03:32:01.898Z,1.90
2023-05-05T03:34:30.336Z,1.60
2023-05-05T03:36:59.939Z,2.00
2023-05-05T03:39:27.255Z,1.67
2023-05-05T03:41:55.278Z,1.80
2023-05-05T03:44:24.073Z,2.10
2023-05-05T03:46:51.404Z,2.10
2023-05-05T03:49:18.938Z,1.60
2023-05-05T03:51:48.827Z,1.73
2023-05-05T03:54:17.156Z,1.42
2023-05-05T03:56:45.023Z,1.60
2023-05-05T03:59:12.474Z,1.73
2023-05-05T04:01:40.134Z,1.77
2023-05-05T04:04:07.753Z,1.88
2023-05-05T04:06:35.473Z,2.35
2023-05-05T04:09:05.268Z,1.42
2023-05-05T04:11:32.991Z,1.52
2023-05-05T04:14:01.484Z,1.98
2023-05-05T04:16:31.354Z,1.73
2023-05-05T04:18:59.774Z,1.50
2023-05-05T04:21:28.402Z,1.70
2023-05-05T04:23:56.244Z,1.60
2023-05-05T04:26:23.768Z,1.73
2023-05-05T04:28:52.408Z,1.58
2023-05-05T04:31:21.211Z,1.50
2023-05-05T04:33:48.822Z,1.40
2023-05-05T04:36:19.477Z,1.50
2023-05-05T04:38:48.366Z,1.35
2023-05-05T04:41:16.033Z,1.40
2023-05-05T04:43:45.253Z,1.70
2023-05-05T04:46:13.724Z,1.45
2023-05-05T04:48:41.414Z,1.30
2023-05-05T04:51:08.945Z,1.45
2023-05-05T04:53:37.439Z,1.55
2023-05-05T04:56:05.100Z,1.20
2023-05-05T04:58:33.079Z,1.40
2023-05-05T05:01:01.039Z,1.30
2023-05-05T05:03:28.908Z,1.15
2023-05-05T05:05:56.816Z,1.40
2023-05-05T05:08:24.429Z,1.27
2023-05-05T05:10:52.663Z,1.15
2023-05-05T05:13:20.281Z,1.13
2023-05-05T05:15:48.165Z,1.00
2023-05-05T05:18:15.782Z,1.40
2023-05-05T05:20:43.587Z,1.00
2023-05-05T05:23:14.647Z,0.90
2023-05-05T05:25:45.071Z,1.02
2023-05-05T05:28:14.201Z,0.82
2023-05-05T05:30:50.273Z,1.05
2023-05-05T05:33:17.936Z,1.02
2023-05-05T05:35:46.128Z,1.00
2023-05-05T05:38:14.517Z,0.90
2023-05-05T05:40:42.620Z,1.20
2023-05-05T05:43:10.598Z,0.85
2023-05-05T05:45:42.521Z,0.98
2023-05-05T05:48:11.043Z,0.90
2023-05-05T05:50:38.707Z,1.00
2023-05-05T05:53:06.697Z,1.25
2023-05-05T05:55:34.625Z,0.85
2023-05-05T05:58:02.973Z,0.70
2023-05-05T06:00:31.419Z,0.90
2023-05-05T06:03:06.668Z,1.20
2023-05-05T06:05:37.228Z,0.70
2023-05-05T06:08:05.437Z,0.88
2023-05-05T06:10:37.056Z,1.10
2023-05-05T06:13:10.181Z,0.80
2023-05-05T06:15:42.048Z,1.15
2023-05-05T06:18:11.071Z,0.98
2023-05-05T06:20:38.942Z,0.80
2023-05-05T06:23:07.510Z,0.80
2023-05-05T06:25:38.818Z,0.87
2023-05-05T06:28:06.489Z,1.02
2023-05-05T06:30:34.840Z,0.90
2023-05-05T06:33:02.467Z,1.00
2023-05-05T06:35:30.755Z,0.85
2023-05-05T06:37:59.089Z,0.90
2023-05-05T06:40:26.621Z,0.90
2023-05-05T06:42:54.656Z,0.90
2023-05-05T06:45:27.355Z,1.30
2023-05-05T06:47:55.284Z,0.98
2023-05-05T06:50:23.203Z,0.82
2023-05-05T06:52:50.709Z,0.75
2023-05-05T06:55:18.507Z,0.90
2023-05-05T06:57:46.715Z,1.17
2023-05-05T07:00:15.548Z,1.20
2023-05-05T07:02:43.512Z,1.08
2023-05-05T07:05:14.821Z,0.70
2023-05-05T07:08:02.544Z,0.90
2023-05-05T07:10:30.334Z,0.65
2023-05-05T07:12:58.266Z,0.68
2023-05-05T07:15:29.254Z,0.90
2023-05-05T07:17:58.231Z,0.77
2023-05-05T07:20:25.899Z,0.70
2023-05-05T07:22:54.071Z,0.90
2023-05-05T07:25:22.226Z,1.40
2023-05-05T07:27:50.345Z,1.23
2023-05-05T07:30:20.174Z,0.90
2023-05-05T07:32:48.513Z,1.30
2023-05-05T07:35:16.262Z,0.93
2023-05-05T07:37:46.212Z,1.00
2023-05-05T07:40:14.022Z,0.90
2023-05-05T07:42:41.874Z,0.80
2023-05-05T07:45:10.158Z,0.88
2023-05-05T07:47:37.925Z,0.70
2023-05-05T07:50:06.627Z,0.80
2023-05-05T07:52:45.298Z,0.80
2023-05-05T07:55:17.885Z,1.10
2023-05-05T07:57:45.626Z,0.70
2023-05-05T08:00:13.804Z,0.40
2023-05-05T08:02:41.892Z,0.90
2023-05-05T08:05:10.400Z,0.70
2023-05-05T08:07:41.772Z,0.80
2023-05-05T08:10:12.437Z,1.00
2023-05-05T08:12:40.925Z,0.60
2023-05-05T08:15:09.803Z,0.68
2023-05-05T08:17:49.422Z,0.70
2023-05-05T08:20:21.838Z,0.75
2023-05-05T08:22:50.771Z,0.85
2023-05-05T08:25:19.330Z,0.90
2023-05-05T08:27:47.917Z,0.80
2023-05-05T08:30:17.950Z,0.80
2023-05-05T08:32:46.082Z,0.60
2023-05-05T08:35:14.526Z,0.80
2023-05-05T08:37:42.757Z,1.02
2023-05-05T08:40:14.843Z,0.93
2023-05-05T08:42:46.667Z,0.90
2023-05-05T08:45:14.234Z,0.73
2023-05-05T08:47:43.757Z,0.70
2023-05-05T08:50:12.651Z,0.70
2023-05-05T08:52:49.830Z,0.75
2023-05-05T08:55:26.948Z,0.60
2023-05-05T08:57:59.022Z,0.73
2023-05-05T09:00:28.184Z,0.90
2023-05-05T09:03:00.549Z,0.50
2023-05-05T09:05:28.148Z,0.63
2023-05-05T09:07:56.027Z,0.82
2023-05-05T09:10:29.729Z,1.10
2023-05-05T09:12:57.702Z,1.15
2023-05-05T09:15:28.668Z,0.52
2023-05-05T09:18:00.199Z,0.55
2023-05-05T09:20:35.713Z,0.55
2023-05-05T09:23:21.135Z,0.55
2023-05-05T09:26:04.395Z,0.70
2023-05-05T09:28:33.209Z,0.70
2023-05-05T09:31:16.369Z,0.63
2023-05-05T09:33:45.251Z,0.82
2023-05-05T09:36:12.938Z,0.65
2023-05-05T09:38:40.873Z,0.65
2023-05-05T09:41:08.527Z,0.50
2023-05-05T09:43:52.766Z,0.77
2023-05-05T09:46:20.930Z,0.80
2023-05-05T09:48:48.464Z,0.80
2023-05-05T09:51:16.240Z,0.60
2023-05-05T09:53:44.620Z,0.80
2023-05-05T09:56:12.432Z,0.82
2023-05-05T09:58:40.058Z,0.68
2023-05-05T10:01:23.192Z,0.60
2023-05-05T10:03:53.743Z,0.60
2023-05-05T10:06:39.335Z,0.60
2023-05-05T10:09:06.908Z,0.57
2023-05-05T10:11:36.398Z,0.55
2023-05-05T10:14:06.980Z,0.95
2023-05-05T10:16:36.601Z,0.52
2023-05-05T10:19:04.868Z,0.60
2023-05-05T10:21:34.854Z,0.90
2023-05-05T10:24:34.604Z,0.50
2023-05-05T10:27:03.758Z,0.82
2023-05-05T10:29:44.570Z,0.80
2023-05-05T10:35:23.554Z,0.65
2023-05-05T10:37:51.754Z,0.77
2023-05-05T10:40:23.120Z,0.73
2023-05-05T10:42:52.368Z,0.47
2023-05-05T10:45:19.960Z,0.50
2023-05-05T10:47:48.386Z,0.70
2023-05-05T10:50:31.452Z,0.60
2023-05-05T10:53:29.148Z,0.50
2023-05-05T10:56:28.950Z,0.63
2023-05-05T10:59:00.216Z,0.60
2023-05-05T11:04:20.587Z,0.50
2023-05-05T11:07:12.680Z,0.50
2023-05-05T11:09:59.803Z,0.55
2023-05-05T11:12:28.205Z,0.65
2023-05-05T11:15:26.730Z,0.50
2023-05-05T11:17:56.208Z,1.10
2023-05-05T11:20:52.803Z,0.57
2023-05-05T11:23:20.663Z,0.55
2023-05-05T11:25:48.875Z,0.55
2023-05-05T11:28:25.932Z,0.50
2023-05-05T11:30:57.246Z,0.60
2023-05-05T11:33:40.092Z,0.60
2023-05-05T11:36:12.770Z,0.70
2023-05-05T11:39:25.461Z,0.60
2023-05-05T11:42:30.945Z,0.50
2023-05-05T11:44:58.896Z,0.68
2023-05-05T11:47:27.938Z,0.80
2023-05-05T11:49:56.091Z,0.40
2023-05-05T11:52:26.074Z,0.75
2023-05-05T11:54:53.827Z,0.55
2023-05-05T11:57:29.195Z,0.50
2023-05-05T12:00:06.632Z,0.50
2023-05-05T12:02:34.819Z,0.57
2023-05-05T12:05:12.209Z,0.52
2023-05-05T12:07:40.470Z,0.70
2023-05-05T12:10:08.718Z,0.43
2023-05-05T12:12:41.545Z,0.50
2023-05-05T12:15:10.357Z,0.80
2023-05-05T12:17:45.129Z,0.70
2023-05-05T12:20:13.552Z,0.50
2023-05-05T12:22:41.684Z,0.68
2023-05-05T12:25:09.888Z,0.68
2023-05-05T12:27:37.754Z,0.50
2023-05-05T12:30:18.443Z,0.73
2023-05-05T12:32:46.632Z,0.65
2023-05-05T12:35:14.930Z,0.70
2023-05-05T12:37:45.479Z,0.82
2023-05-05T12:40:47.872Z,0.73
2023-05-05T12:43:32.750Z,0.63
2023-05-05T12:46:12.295Z,0.63
2023-05-05T12:48:46.421Z,0.50
2023-05-05T12:51:23.691Z,0.60
2023-05-05T12:54:20.294Z,0.60
2023-05-05T12:56:49.249Z,0.77
2023-05-05T12:59:23.004Z,0.75
2023-05-05T13:01:52.615Z,0.80
2023-05-05T13:04:22.451Z,0.70
2023-05-05T13:07:07.946Z,0.70
2023-05-05T13:09:35.852Z,0.73
2023-05-05T13:12:04.169Z,0.80
2023-05-05T13:14:37.567Z,0.73
2023-05-05T13:17:05.591Z,0.57
2023-05-05T13:19:35.727Z,0.70
2023-05-05T13:22:03.539Z,0.90
2023-05-05T13:24:46.544Z,0.60
2023-05-05T13:27:14.747Z,0.65
2023-05-05T13:29:42.793Z,1.05
2023-05-05T13:32:10.735Z,0.75
2023-05-05T13:34:39.430Z,0.75
2023-05-05T13:37:07.200Z,0.60
2023-05-05T13:39:34.944Z,0.60
2023-05-05T13:42:02.795Z,0.70
2023-05-05T13:44:30.840Z,0.70
2023-05-05T13:46:58.594Z,0.50
2023-05-05T13:49:26.302Z,0.70
2023-05-05T13:51:55.404Z,0.68
2023-05-05T13:54:23.279Z,0.60
2023-05-05T13:56:50.934Z,0.73
2023-05-05T13:59:18.558Z,0.60
2023-05-05T14:01:46.829Z,0.70
2023-05-05T14:04:14.761Z,0.60
2023-05-05T14:06:44.974Z,0.75
2023-05-05T14:09:13.795Z,0.63
2023-05-05T14:11:42.050Z,0.70
2023-05-05T14:14:09.838Z,0.95
2023-05-05T14:16:37.293Z,1.20
2023-05-05T14:19:04.961Z,1.02
2023-05-05T14:21:33.087Z,1.10
2023-05-05T14:24:01.085Z,0.70
2023-05-05T14:26:28.447Z,0.63
2023-05-05T14:28:56.380Z,0.43
2023-05-05T14:31:24.008Z,0.70
2023-05-05T14:33:51.982Z,0.80
2023-05-05T14:36:20.100Z,0.73
2023-05-05T14:38:47.725Z,0.88
2023-05-05T14:41:16.479Z,0.70
2023-05-05T14:43:44.623Z,0.82
2023-05-05T14:46:12.346Z,0.88
2023-05-05T14:48:40.133Z,0.60
2023-05-05T14:51:07.613Z,0.90
2023-05-05T14:53:35.597Z,0.80
2023-05-05T14:56:03.235Z,0.90
2023-05-05T14:58:31.296Z,0.93
2023-05-05T15:00:59.203Z,1.00
2023-05-05T15:03:27.300Z,2.33
2023-05-05T15:05:54.793Z,2.65
2023-05-05T15:08:22.293Z,1.45
2023-05-05T15:10:50.033Z,0.63
2023-05-05T15:13:19.069Z,0.68
2023-05-05T15:15:46.897Z,0.80
2023-05-05T15:18:14.927Z,1.10
2023-05-05T15:20:42.512Z,1.00
2023-05-05T15:23:10.406Z,0.85
2023-05-05T15:25:38.172Z,0.75
2023-05-05T15:28:06.005Z,0.75
2023-05-05T15:30:33.846Z,0.90
2023-05-05T15:33:01.774Z,0.70
2023-05-05T15:35:29.072Z,1.02
2023-05-05T15:37:56.694Z,0.73
2023-05-05T15:40:24.519Z,0.90
2023-05-05T15:42:52.070Z,0.65
2023-05-05T15:45:19.939Z,0.63
2023-05-05T15:47:48.170Z,1.15
2023-05-05T15:50:16.205Z,0.60
2023-05-05T15:52:43.729Z,1.10
2023-05-05T15:55:12.121Z,0.68
2023-05-05T15:57:40.624Z,0.80
2023-05-05T16:00:09.169Z,1.00
2023-05-05T16:02:37.759Z,0.82
2023-05-05T16:05:08.597Z,0.85
2023-05-05T16:07:36.152Z,0.70
2023-05-05T16:10:04.225Z,1.23
2023-05-05T16:12:32.097Z,1.05
2023-05-05T16:14:59.724Z,0.88
2023-05-05T16:17:27.500Z,0.80
2023-05-05T16:19:55.212Z,1.05
2023-05-05T16:22:22.706Z,0.85
2023-05-05T16:24:50.399Z,0.80
2023-05-05T16:27:18.095Z,0.60
2023-05-05T16:29:46.091Z,2.72
2023-05-05T16:32:13.485Z,1.33
2023-05-05T16:34:41.148Z,0.95
2023-05-05T16:37:08.783Z,1.13
2023-05-05T16:39:40.452Z,6.60
2023-05-05T16:42:08.258Z,1.05
2023-05-05T16:44:36.184Z,2.22
2023-05-05T16:47:04.498Z,3.15
2023-05-05T16:49:32.546Z,3.60
2023-05-05T16:51:59.955Z,2.88
2023-05-05T16:54:27.179Z,2.00
2023-05-05T16:56:55.342Z,3.13
2023-05-05T16:59:22.642Z,2.10
2023-05-05T17:01:50.581Z,3.13
2023-05-05T17:04:18.022Z,5.10
2023-05-05T17:06:45.471Z,3.33
2023-05-05T17:09:12.865Z,1.60
2023-05-05T17:11:40.768Z,1.50
2023-05-05T17:14:08.407Z,0.93
2023-05-05T17:16:36.178Z,1.23
2023-05-05T17:19:03.648Z,1.67
2023-05-05T17:21:31.402Z,2.92
2023-05-05T17:23:58.907Z,2.20
2023-05-05T17:26:26.741Z,2.78
2023-05-05T17:28:54.627Z,3.38
2023-05-05T17:31:22.117Z,3.35
2023-05-05T17:33:50.124Z,2.80
2023-05-05T17:36:17.955Z,2.28
2023-05-05T17:38:45.736Z,2.42
2023-05-05T17:41:13.309Z,2.25
2023-05-05T17:43:41.347Z,1.58
2023-05-05T17:46:08.828Z,1.75
2023-05-05T17:48:36.697Z,1.63
2023-05-05T17:51:04.310Z,2.38
2023-05-05T17:53:32.050Z,4.18
2023-05-05T17:55:59.636Z,8.57
2023-05-05T17:58:27.574Z,7.80
2023-05-05T18:00:55.012Z,5.80
2023-05-05T18:03:22.248Z,5.32
2023-05-05T18:05:49.957Z,4.43
2023-05-05T18:08:17.765Z,3.38
2023-05-05T18:10:45.635Z,4.00
2023-05-05T18:13:13.494Z,3.25
2023-05-05T18:15:41.541Z,2.50
2023-05-05T18:18:08.863Z,2.25
2023-05-05T18:20:36.883Z,3.17
2023-05-05T18:23:04.289Z,2.47
2023-05-05T18:25:31.625Z,4.18
2023-05-05T18:27:59.618Z,5.22
2023-05-05T18:30:27.293Z,4.13
2023-05-05T18:32:54.874Z,4.03
2023-05-05T18:35:22.943Z,2.95
2023-05-05T18:37:51.061Z,3.70
2023-05-05T18:40:18.808Z,2.33
2023-05-05T18:42:46.070Z,1.85
2023-05-05T18:45:13.564Z,1.92
2023-05-05T18:47:41.666Z,4.97
2023-05-05T18:50:10.259Z,2.53
2023-05-05T18:52:37.764Z,2.25
2023-05-05T18:55:05.736Z,2.17
2023-05-05T18:57:33.258Z,1.70
2023-05-05T19:00:01.536Z,1.70
2023-05-05T19:02:29.237Z,2.10
2023-05-05T19:04:56.894Z,2.20
2023-05-05T19:07:34.438Z,1.95
2023-05-05T19:10:05.193Z,2.38
2023-05-05T19:12:32.750Z,2.50
2023-05-05T19:14:59.956Z,2.78
2023-05-05T19:17:28.103Z,1.98
2023-05-05T19:19:55.980Z,2.13
2023-05-05T19:22:24.218Z,2.13
2023-05-05T19:24:51.806Z,2.20
2023-05-05T19:27:19.153Z,2.20
2023-05-05T19:29:49.360Z,2.20
2023-05-05T19:32:17.190Z,2.70
2023-05-05T19:34:44.452Z,1.73
2023-05-05T19:37:12.393Z,1.75
2023-05-05T19:39:40.148Z,1.80
2023-05-05T19:42:07.573Z,1.67
2023-05-05T19:44:35.142Z,2.15
2023-05-05T19:47:02.672Z,2.00
2023-05-05T19:49:30.263Z,1.70
2023-05-05T19:51:59.312Z,1.95
2023-05-05T19:54:27.728Z,1.90
2023-05-05T19:56:57.178Z,1.52
2023-05-05T19:59:25.157Z,1.70
2023-05-05T20:01:52.292Z,1.88
2023-05-05T20:04:19.852Z,2.20
2023-05-05T20:06:47.143Z,1.55
2023-05-05T20:09:14.330Z,1.77
2023-05-05T20:11:41.562Z,1.85
2023-05-05T20:14:08.907Z,1.50
2023-05-05T20:16:36.597Z,1.40
2023-05-05T20:19:05.443Z,2.08
2023-05-05T20:21:35.062Z,1.58
2023-05-05T20:24:02.570Z,1.85
2023-05-05T20:26:29.861Z,1.70
2023-05-05T20:28:57.293Z,1.50
2023-05-05T20:31:24.741Z,1.85
2023-05-05T20:33:52.549Z,1.45
2023-05-05T20:36:20.398Z,1.40
2023-05-05T20:38:48.282Z,1.42
2023-05-05T20:41:15.921Z,1.40
2023-05-05T20:43:43.735Z,1.58
2023-05-05T20:46:13.926Z,1.52
2023-05-05T20:48:43.009Z,1.38
2023-05-05T20:51:10.620Z,1.63
2023-05-05T20:53:38.272Z,1.50
2023-05-05T20:56:08.090Z,1.40
2023-05-05T20:58:36.495Z,1.55
2023-05-05T21:01:03.866Z,1.55
2023-05-05T21:03:31.639Z,1.67
2023-05-05T21:05:59.031Z,1.85
2023-05-05T21:08:27.182Z,1.83
2023-05-05T21:10:54.555Z,1.80
2023-05-05T21:13:22.949Z,1.77
2023-05-05T21:15:50.585Z,2.17
2023-05-05T21:18:18.021Z,1.60
2023-05-05T21:20:45.659Z,1.58
2023-05-05T21:23:13.201Z,1.80
2023-05-05T21:25:40.848Z,1.60
2023-05-05T21:28:08.492Z,1.60
2023-05-05T21:30:36.198Z,1.88
2023-05-05T21:33:03.697Z,1.60
2023-05-05T21:35:32.144Z,1.80
2023-05-05T21:37:59.814Z,1.80
2023-05-05T21:40:27.225Z,2.15
2023-05-05T21:42:54.831Z,2.20
2023-05-05T21:45:22.724Z,1.85
2023-05-05T21:47:50.233Z,2.08
2023-05-05T21:50:20.732Z,2.38
2023-05-05T21:52:48.168Z,2.20
2023-05-05T21:55:15.892Z,1.90
2023-05-05T21:57:44.728Z,2.05
2023-05-05T22:00:17.056Z,1.98
2023-05-05T22:02:45.894Z,2.00
2023-05-05T22:05:13.595Z,1.90
2023-05-05T22:07:41.039Z,2.55
2023-05-05T22:12:36.454Z,1.73
2023-05-05T22:15:04.214Z,2.08
2023-05-05T22:17:31.629Z,2.35
2023-05-05T22:19:59.200Z,2.10
2023-05-05T22:22:26.833Z,2.28
2023-05-05T22:24:54.415Z,2.20
2023-05-05T22:27:21.608Z,2.17
2023-05-05T22:29:49.028Z,1.92
2023-05-05T22:32:17.164Z,1.88
2023-05-05T22:34:44.535Z,2.20
2023-05-05T22:37:11.935Z,1.73
2023-05-05T22:39:39.115Z,2.10
2023-05-05T22:42:06.768Z,1.98
2023-05-05T22:44:34.398Z,2.17
2023-05-05T22:47:01.810Z,2.00
2023-05-05T22:49:29.496Z,2.58
2023-05-05T22:51:57.709Z,2.28
2023-05-05T22:54:25.045Z,2.50
2023-05-05T22:56:52.668Z,2.53
2023-05-05T22:59:20.180Z,2.67
2023-05-05T23:01:47.523Z,2.20
2023-05-05T23:04:15.154Z,2.70
2023-05-05T23:06:42.621Z,2.15
2023-05-05T23:09:09.895Z,2.20
2023-05-05T23:11:37.671Z,2.00
2023-05-05T23:14:04.943Z,2.53
2023-05-05T23:16:32.188Z,2.58
2023-05-05T23:18:59.727Z,2.25
2023-05-05T23:21:32.079Z,2.38
2023-05-05T23:24:01.537Z,2.40
2023-05-05T23:26:28.787Z,2.00
2023-05-05T23:28:55.950Z,2.47
2023-05-05T23:31:23.441Z,1.88
2023-05-05T23:33:50.810Z,1.98
2023-05-05T23:36:18.279Z,1.65
2023-05-05T23:38:46.532Z,2.33
2023-05-05T23:41:13.879Z,1.77
2023-05-05T23:43:41.760Z,2.25
2023-05-05T23:46:09.520Z,2.00
2023-05-05T23:48:37.306Z,2.42
2023-05-05T23:51:04.729Z,1.80
2023-05-05T23:53:32.318Z,1.65
2023-05-05T23:55:59.944Z,1.98
2023-05-05T23:58:29.685Z,2.15
